createdAt,value
2022-08-12T00:00:36.534Z,2.90
2022-08-12T00:03:23.088Z,3.58
2022-08-12T00:06:10.284Z,3.33
2022-08-12T00:08:57.499Z,3.83
2022-08-12T00:11:46.068Z,3.33
2022-08-12T00:14:32.556Z,3.15
2022-08-12T00:17:18.843Z,3.40
2022-08-12T00:20:04.777Z,3.67
2022-08-12T00:22:59.426Z,2.92
2022-08-12T00:26:23.823Z,2.85
2022-08-12T00:29:12.949Z,2.75
2022-08-12T00:32:00.328Z,3.25
2022-08-12T00:34:49.208Z,2.80
2022-08-12T00:37:36.967Z,2.80
2022-08-12T00:40:29.301Z,2.80
2022-08-12T00:42:58.129Z,3.10
2022-08-12T00:45:25.997Z,3.17
2022-08-12T00:47:54.034Z,2.88
2022-08-12T00:50:22.928Z,3.75
2022-08-12T00:52:52.644Z,2.88
2022-08-12T00:55:21.210Z,3.00
2022-08-12T00:57:50.921Z,3.40
2022-08-12T01:00:21.875Z,2.95
2022-08-12T01:02:52.567Z,2.35
2022-08-12T01:05:43.250Z,2.33
2022-08-12T01:08:29.632Z,2.40
2022-08-12T01:11:16.217Z,2.25
2022-08-12T01:13:48.699Z,3.33
2022-08-12T01:16:19.277Z,2.47
2022-08-12T01:18:47.845Z,2.80
2022-08-12T01:21:55.553Z,2.90
2022-08-12T01:25:04.207Z,2.50
2022-08-12T01:27:35.182Z,4.03
2022-08-12T01:30:06.620Z,2.75
2022-08-12T01:32:38.114Z,2.80
2022-08-12T01:35:10.575Z,3.10
2022-08-12T01:37:53.014Z,2.45
2022-08-12T01:40:35.559Z,2.10
2022-08-12T01:43:13.457Z,2.85
2022-08-12T01:45:57.646Z,2.83
2022-08-12T01:49:01.824Z,2.38
2022-08-12T01:52:15.601Z,2.70
2022-08-12T01:54:29.718Z,4.65
2022-08-12T01:57:59.237Z,2.65
2022-08-12T02:00:19.813Z,2.15
2022-08-12T02:03:27.881Z,2.38
2022-08-12T02:06:38.377Z,8.30
2022-08-12T02:09:29.826Z,2.53
2022-08-12T02:12:27.619Z,2.63
2022-08-12T02:15:17.924Z,2.55
2022-08-12T02:17:56.306Z,2.63
2022-08-12T02:20:52.005Z,2.65
2022-08-12T02:23:28.078Z,2.22
2022-08-12T02:26:01.217Z,2.40
2022-08-12T02:28:29.470Z,2.38
2022-08-12T02:31:02.332Z,2.65
2022-08-12T02:33:30.998Z,2.30
2022-08-12T02:36:01.966Z,2.78
2022-08-12T02:38:31.163Z,2.80
2022-08-12T02:41:02.599Z,2.42
2022-08-12T02:43:51.397Z,2.50
2022-08-12T02:46:25.940Z,2.70
2022-08-12T02:49:24.120Z,2.58
2022-08-12T02:51:51.957Z,2.50
2022-08-12T02:54:22.172Z,2.65
2022-08-12T02:56:50.485Z,3.00
2022-08-12T02:59:23.775Z,2.60
2022-08-12T03:01:56.648Z,2.83
2022-08-12T03:04:31.037Z,2.90
2022-08-12T03:07:21.589Z,2.70
2022-08-12T03:10:04.672Z,2.97
2022-08-12T03:12:49.827Z,2.78
2022-08-12T03:15:22.185Z,2.90
2022-08-12T03:18:25.850Z,2.88
2022-08-12T03:20:46.980Z,3.05
2022-08-12T03:23:21.554Z,2.70
2022-08-12T03:26:02.408Z,3.15
2022-08-12T03:28:53.996Z,3.65
2022-08-12T03:34:01.882Z,2.90
2022-08-12T03:36:36.066Z,2.92
2022-08-12T03:39:17.618Z,2.78
2022-08-12T03:42:00.224Z,2.60
2022-08-12T03:44:50.831Z,3.50
2022-08-12T03:48:02.522Z,2.80
2022-08-12T03:50:49.262Z,2.85
2022-08-12T03:53:43.526Z,3.05
2022-08-12T03:56:29.522Z,3.17
2022-08-12T03:59:17.711Z,3.03
2022-08-12T04:01:52.553Z,3.20
2022-08-12T04:04:23.455Z,3.08
2022-08-12T04:09:21.314Z,3.10
2022-08-12T04:12:08.999Z,3.38
2022-08-12T04:14:37.769Z,3.42
2022-08-12T04:17:05.304Z,3.28
2022-08-12T04:19:32.866Z,3.40
2022-08-12T04:22:03.495Z,3.10
2022-08-12T04:27:09.265Z,3.58
2022-08-12T04:30:32.969Z,3.40
2022-08-12T04:32:26.491Z,3.65
2022-08-12T04:34:54.635Z,3.40
2022-08-12T04:37:23.218Z,3.45
2022-08-12T04:39:52.498Z,3.75
2022-08-12T04:42:20.954Z,3.58
2022-08-12T04:44:48.644Z,3.42
2022-08-12T04:47:17.090Z,3.65
2022-08-12T04:49:46.061Z,3.83
2022-08-12T04:52:14.504Z,3.72
2022-08-12T04:54:43.931Z,3.78
2022-08-12T04:57:11.586Z,3.78
2022-08-12T04:59:48.132Z,3.90
2022-08-12T05:02:22.191Z,3.97
2022-08-12T05:04:52.330Z,4.30
2022-08-12T05:07:20.744Z,3.95
2022-08-12T05:10:00.569Z,3.88
2022-08-12T05:12:41.445Z,3.53
2022-08-12T05:15:27.902Z,3.95
2022-08-12T05:18:00.019Z,3.90
2022-08-12T05:20:29.843Z,3.78
2022-08-12T05:23:13.976Z,4.15
2022-08-12T05:25:43.268Z,4.72
2022-08-12T05:28:13.083Z,3.60
2022-08-12T05:30:43.618Z,4.78
2022-08-12T05:33:12.691Z,3.88
2022-08-12T05:35:43.219Z,4.22
2022-08-12T05:38:31.649Z,5.18
2022-08-12T05:41:00.280Z,4.50
2022-08-12T05:43:28.829Z,4.07
2022-08-12T05:45:56.785Z,4.97
2022-08-12T05:48:24.546Z,5.40
2022-08-12T05:50:53.180Z,4.47
2022-08-12T05:53:20.713Z,4.70
2022-08-12T05:55:48.132Z,5.15
2022-08-12T05:58:15.520Z,4.40
2022-08-12T06:00:43.018Z,4.43
2022-08-12T06:03:11.152Z,4.25
2022-08-12T06:05:43.038Z,5.38
2022-08-12T06:08:22.161Z,4.60
2022-08-12T06:10:50.291Z,4.47
2022-08-12T06:13:27.994Z,4.85
2022-08-12T06:16:07.422Z,5.43
2022-08-12T06:18:35.062Z,4.90
2022-08-12T06:21:02.677Z,4.63
2022-08-12T06:23:30.561Z,4.43
2022-08-12T06:25:59.159Z,4.15
2022-08-12T06:28:28.093Z,4.65
2022-08-12T06:31:22.575Z,4.85
2022-08-12T06:33:55.747Z,4.50
2022-08-12T06:36:29.876Z,4.43
2022-08-12T06:39:01.419Z,4.60
2022-08-12T06:42:04.941Z,4.88
2022-08-12T06:44:45.418Z,5.07
2022-08-12T06:47:16.583Z,6.10
2022-08-12T06:49:44.561Z,4.63
2022-08-12T06:52:11.996Z,4.75
2022-08-12T06:54:41.143Z,5.10
2022-08-12T06:58:06.298Z,4.93
2022-08-12T06:59:56.279Z,5.38
2022-08-12T07:02:25.856Z,5.85
2022-08-12T07:04:53.244Z,4.35
2022-08-12T07:07:21.344Z,5.55
2022-08-12T07:10:05.528Z,5.32
2022-08-12T07:12:36.938Z,5.65
2022-08-12T07:15:04.907Z,4.95
2022-08-12T07:17:37.427Z,5.50
2022-08-12T07:20:35.706Z,5.45
2022-08-12T07:23:02.186Z,5.05
2022-08-12T07:25:37.937Z,5.25
2022-08-12T07:28:19.011Z,5.25
2022-08-12T07:30:49.253Z,5.18
2022-08-12T07:33:18.551Z,6.43
2022-08-12T07:35:47.785Z,5.72
2022-08-12T07:38:29.778Z,5.28
2022-08-12T07:41:06.185Z,5.10
2022-08-12T07:43:36.694Z,4.45
2022-08-12T07:46:09.280Z,5.25
2022-08-12T07:48:46.311Z,6.83
2022-08-12T07:51:25.037Z,4.45
2022-08-12T07:54:00.176Z,5.30
2022-08-12T07:56:29.005Z,4.93
2022-08-12T07:58:59.051Z,5.13
2022-08-12T08:01:27.145Z,4.40
2022-08-12T08:04:18.423Z,3.67
2022-08-12T08:06:47.173Z,4.93
2022-08-12T08:09:17.359Z,5.13
2022-08-12T08:12:03.739Z,4.28
2022-08-12T08:14:32.688Z,4.25
2022-08-12T08:17:03.450Z,4.20
2022-08-12T08:19:33.715Z,3.88
2022-08-12T08:22:32.058Z,4.40
2022-08-12T08:25:34.241Z,4.45
2022-08-12T08:27:57.985Z,4.18
2022-08-12T08:30:25.945Z,4.32
2022-08-12T08:32:53.518Z,3.92
2022-08-12T08:35:26.015Z,3.85
2022-08-12T08:38:13.822Z,3.90
2022-08-12T08:41:04.832Z,4.30
2022-08-12T08:43:44.231Z,4.18
2022-08-12T08:46:14.447Z,3.53
2022-08-12T08:48:41.829Z,3.35
2022-08-12T08:51:09.277Z,3.60
2022-08-12T08:53:41.419Z,3.63
2022-08-12T08:56:11.679Z,3.60
2022-08-12T08:58:40.754Z,4.10
2022-08-12T09:01:08.288Z,3.95
2022-08-12T09:05:08.851Z,3.47
2022-08-12T09:06:37.327Z,3.67
2022-08-12T09:09:13.448Z,3.78
2022-08-12T09:14:51.189Z,3.75
2022-08-12T09:17:22.477Z,3.40
2022-08-12T09:22:37.788Z,3.00
2022-08-12T09:25:07.111Z,3.35
2022-08-12T09:28:03.863Z,3.15
2022-08-12T09:30:41.220Z,3.40
2022-08-12T09:33:15.234Z,3.50
2022-08-12T09:36:04.154Z,3.42
2022-08-12T09:38:35.217Z,2.80
2022-08-12T09:42:35.204Z,3.42
2022-08-12T09:44:37.943Z,3.08
2022-08-12T09:46:57.991Z,3.45
2022-08-12T09:49:25.437Z,2.83
2022-08-12T09:51:55.358Z,4.25
2022-08-12T09:54:31.497Z,2.97
2022-08-12T09:58:45.729Z,2.75
2022-08-12T10:00:13.134Z,3.30
2022-08-12T10:03:32.351Z,2.80
2022-08-12T10:06:27.238Z,3.00
2022-08-12T10:08:52.461Z,3.03
2022-08-12T10:12:09.678Z,2.83
2022-08-12T10:14:34.231Z,2.92
2022-08-12T10:17:02.617Z,2.78
2022-08-12T10:19:36.600Z,3.10
2022-08-12T10:22:16.460Z,3.00
2022-08-12T10:25:18.026Z,2.90
2022-08-12T10:28:08.399Z,3.20
2022-08-12T10:30:46.828Z,3.22
2022-08-12T10:33:31.760Z,2.40
2022-08-12T10:36:01.982Z,2.50
2022-08-12T10:38:38.306Z,2.75
2022-08-12T10:41:58.164Z,2.50
2022-08-12T10:44:17.303Z,3.38
2022-08-12T10:50:04.999Z,2.50
2022-08-12T10:52:33.988Z,2.45
2022-08-12T10:54:56.086Z,2.38
2022-08-12T10:58:13.689Z,2.67
2022-08-12T11:00:32.078Z,2.92
2022-08-12T11:04:34.344Z,2.80
2022-08-12T11:07:05.632Z,2.65
2022-08-12T11:08:43.180Z,2.50
2022-08-12T11:12:35.095Z,2.80
2022-08-12T11:14:06.009Z,3.33
2022-08-12T11:16:40.462Z,2.70
2022-08-12T11:19:29.280Z,2.70
2022-08-12T11:22:03.294Z,2.40
2022-08-12T11:24:32.278Z,2.75
2022-08-12T11:30:02.376Z,2.30
2022-08-12T11:32:26.483Z,2.28
2022-08-12T11:34:54.826Z,2.53
2022-08-12T11:37:26.395Z,2.53
2022-08-12T11:42:37.233Z,2.45
2022-08-12T11:45:06.017Z,2.80
2022-08-12T11:47:40.469Z,2.80
2022-08-12T11:50:08.454Z,2.33
2022-08-12T11:52:55.032Z,2.63
2022-08-12T11:55:27.574Z,2.17
2022-08-12T11:58:03.957Z,2.38
2022-08-12T12:03:43.727Z,2.58
2022-08-12T12:06:20.820Z,2.72
2022-08-12T12:08:53.789Z,2.47
2022-08-12T12:11:22.794Z,2.40
2022-08-12T12:14:07.521Z,3.00
2022-08-12T12:16:39.936Z,2.50
2022-08-12T12:19:10.142Z,2.97
2022-08-12T12:21:47.258Z,2.30
2022-08-12T12:24:21.487Z,2.53
2022-08-12T12:27:00.331Z,2.58
2022-08-12T12:30:17.819Z,2.28
2022-08-12T12:32:17.224Z,2.42
2022-08-12T12:35:14.183Z,2.33
2022-08-12T12:38:04.554Z,2.60
2022-08-12T12:40:22.703Z,2.70
2022-08-12T12:43:01.722Z,2.58
2022-08-12T12:45:34.111Z,2.92
2022-08-12T12:48:10.428Z,2.08
2022-08-12T12:50:42.519Z,2.40
2022-08-12T12:54:06.708Z,2.50
2022-08-12T12:56:09.247Z,2.78
2022-08-12T12:58:37.240Z,2.38
2022-08-12T13:01:27.867Z,2.40
2022-08-12T13:03:56.368Z,2.47
2022-08-12T13:06:30.832Z,2.40
2022-08-12T13:09:03.188Z,2.23
2022-08-12T13:11:39.131Z,2.28
2022-08-12T13:14:29.248Z,2.70
2022-08-12T13:17:02.754Z,3.63
2022-08-12T13:19:38.704Z,2.08
2022-08-12T13:22:19.051Z,2.55
2022-08-12T13:24:52.137Z,2.28
2022-08-12T13:27:34.522Z,2.40
2022-08-12T13:30:10.767Z,2.17
2022-08-12T13:32:57.340Z,2.08
2022-08-12T13:36:06.180Z,2.30
2022-08-12T13:38:34.537Z,2.47
2022-08-12T13:41:04.027Z,1.80
2022-08-12T13:43:40.450Z,2.10
2022-08-12T13:46:12.311Z,2.45
2022-08-12T13:48:45.152Z,2.70
2022-08-12T13:51:14.203Z,2.58
2022-08-12T13:53:58.275Z,2.00
2022-08-12T13:56:34.678Z,2.25
2022-08-12T13:59:08.733Z,2.42
2022-08-12T14:01:40.698Z,2.13
2022-08-12T14:04:11.428Z,2.30
2022-08-12T14:06:40.451Z,2.22
2022-08-12T14:09:18.035Z,2.50
2022-08-12T14:11:59.119Z,2.00
2022-08-12T14:14:31.663Z,2.17
2022-08-12T14:17:09.908Z,2.30
2022-08-12T14:19:48.536Z,2.20
2022-08-12T14:22:20.279Z,2.17
2022-08-12T14:24:47.733Z,1.75
2022-08-12T14:27:38.168Z,2.10
2022-08-12T14:30:15.461Z,2.00
2022-08-12T14:32:45.311Z,2.30
2022-08-12T14:35:13.384Z,2.33
2022-08-12T14:37:58.197Z,2.53
2022-08-12T14:40:30.365Z,2.03
2022-08-12T14:42:59.145Z,2.20
2022-08-12T14:45:37.096Z,2.42
2022-08-12T14:48:18.966Z,2.38
2022-08-12T14:51:03.069Z,2.30
2022-08-12T14:59:57.447Z,2.05
2022-08-12T15:02:21.017Z,2.28
2022-08-12T15:05:03.846Z,2.20
2022-08-12T15:07:34.221Z,2.25
2022-08-12T15:10:31.742Z,3.22
2022-08-12T15:13:07.128Z,2.88
2022-08-12T15:15:43.660Z,2.30
2022-08-12T15:18:21.085Z,1.92
2022-08-12T15:20:51.299Z,2.33
2022-08-12T15:23:21.736Z,2.60
2022-08-12T15:25:59.848Z,2.22
2022-08-12T15:28:33.286Z,2.42
2022-08-12T15:31:02.208Z,2.60
2022-08-12T15:33:44.717Z,2.83
2022-08-12T15:36:14.304Z,2.20
2022-08-12T15:38:46.841Z,2.63
2022-08-12T15:41:14.668Z,2.40
2022-08-12T15:44:17.026Z,2.17
2022-08-12T15:46:32.202Z,2.20
2022-08-12T15:49:00.337Z,2.08
2022-08-12T15:51:57.646Z,1.80
2022-08-12T15:54:30.896Z,2.25
2022-08-12T15:57:05.650Z,2.35
2022-08-12T16:00:00.018Z,2.58
2022-08-12T16:02:21.282Z,3.05
2022-08-12T16:04:51.541Z,2.97
2022-08-12T16:07:30.151Z,2.60
2022-08-12T16:10:07.221Z,2.63
2022-08-12T16:12:55.164Z,2.50
2022-08-12T16:15:26.370Z,2.22
2022-08-12T16:18:18.261Z,2.75
2022-08-12T16:20:46.746Z,2.90
2022-08-12T16:23:26.368Z,2.53
2022-08-12T16:26:14.573Z,2.72
2022-08-12T16:28:47.484Z,2.50
2022-08-12T16:31:23.348Z,2.90
2022-08-12T16:33:58.954Z,2.70
2022-08-12T16:36:31.341Z,2.97
2022-08-12T16:39:01.800Z,2.70
2022-08-12T16:41:37.921Z,2.75
2022-08-12T16:44:09.026Z,2.45
2022-08-12T16:46:37.887Z,2.30
2022-08-12T16:49:08.976Z,2.53
2022-08-12T16:51:46.555Z,2.67
2022-08-12T16:54:21.893Z,2.38
2022-08-12T16:56:57.829Z,2.53
2022-08-12T16:59:53.575Z,3.00
2022-08-12T17:02:31.616Z,2.58
2022-08-12T17:05:05.217Z,2.58
2022-08-12T17:07:43.296Z,2.83
2022-08-12T17:10:14.147Z,2.58
2022-08-12T17:12:46.136Z,2.70
2022-08-12T17:15:21.702Z,2.40
2022-08-12T17:18:39.308Z,2.60
2022-08-12T17:20:51.663Z,2.78
2022-08-12T17:23:21.359Z,2.90
2022-08-12T17:25:52.249Z,2.70
2022-08-12T17:28:24.253Z,2.50
2022-08-12T17:30:57.421Z,3.10
2022-08-12T17:33:33.320Z,2.35
2022-08-12T17:36:03.057Z,2.35
2022-08-12T17:38:30.771Z,2.40
2022-08-12T17:40:58.546Z,2.63
2022-08-12T17:43:56.007Z,3.33
2022-08-12T17:46:23.939Z,2.42
2022-08-12T17:48:59.793Z,2.40
2022-08-12T17:51:31.294Z,2.45
2022-08-12T17:54:10.387Z,2.92
2022-08-12T17:56:43.258Z,2.75
2022-08-12T17:59:12.733Z,2.97
2022-08-12T18:01:45.642Z,2.90
2022-08-12T18:04:21.495Z,2.88
2022-08-12T18:06:52.358Z,2.60
2022-08-12T18:09:24.672Z,2.80
2022-08-12T18:12:12.723Z,2.60
2022-08-12T18:14:41.396Z,2.80
2022-08-12T18:17:16.264Z,2.80
2022-08-12T18:20:07.075Z,2.63
2022-08-12T18:22:32.798Z,2.58
2022-08-12T18:25:04.142Z,2.70
2022-08-12T18:27:43.541Z,2.97
2022-08-12T18:30:16.347Z,3.30
2022-08-12T18:32:59.041Z,2.40
2022-08-12T18:35:46.976Z,2.30
2022-08-12T18:38:22.042Z,2.40
2022-08-12T18:41:10.104Z,2.30
2022-08-12T18:43:58.588Z,3.00
2022-08-12T18:46:53.748Z,3.20
2022-08-12T18:49:33.446Z,3.60
2022-08-12T18:52:07.955Z,3.10
2022-08-12T18:54:49.405Z,3.17
2022-08-12T18:58:06.546Z,3.08
2022-08-12T19:00:21.543Z,2.50
2022-08-12T19:02:55.778Z,3.03
2022-08-12T19:05:52.888Z,3.30
2022-08-12T19:08:14.037Z,3.20
2022-08-12T19:10:42.958Z,3.40
2022-08-12T19:13:53.203Z,2.70
2022-08-12T19:16:21.676Z,2.75
2022-08-12T19:18:52.614Z,3.93
2022-08-12T19:21:20.424Z,3.50
2022-08-12T19:24:08.925Z,3.55
2022-08-12T19:26:37.099Z,3.35
2022-08-12T19:29:07.350Z,2.55
2022-08-12T19:31:57.491Z,2.85
2022-08-12T19:38:03.450Z,2.92
2022-08-12T19:40:20.534Z,2.78
2022-08-12T19:43:18.922Z,3.33
2022-08-12T19:45:51.323Z,2.83
2022-08-12T19:50:52.411Z,3.15
2022-08-12T19:53:23.392Z,3.38
2022-08-12T19:55:53.258Z,3.05
2022-08-12T19:58:35.417Z,3.40
2022-08-12T20:01:12.525Z,3.42
2022-08-12T20:03:47.939Z,3.08
2022-08-12T20:06:28.431Z,3.05
2022-08-12T20:08:57.726Z,3.00
2022-08-12T20:12:15.042Z,2.88
2022-08-12T20:14:19.163Z,2.97
2022-08-12T20:17:01.621Z,3.03
2022-08-12T20:20:00.989Z,3.55
2022-08-12T20:22:29.489Z,3.65
2022-08-12T20:25:01.481Z,3.17
2022-08-12T20:28:02.975Z,2.88
2022-08-12T20:30:52.171Z,3.30
2022-08-12T20:33:17.743Z,2.90
2022-08-12T20:36:14.130Z,3.00
2022-08-12T20:38:40.039Z,3.05
2022-08-12T20:41:17.858Z,3.40
2022-08-12T20:43:57.231Z,3.13
2022-08-12T20:46:33.889Z,3.03
2022-08-12T20:49:14.886Z,2.72
2022-08-12T20:51:55.842Z,3.47
2022-08-12T20:54:32.871Z,2.75
2022-08-12T20:57:07.445Z,3.58
2022-08-12T20:59:47.950Z,3.13
2022-08-12T21:02:16.297Z,3.60
2022-08-12T21:07:51.802Z,3.60
2022-08-12T21:10:21.225Z,3.40
2022-08-12T21:12:50.867Z,3.35
2022-08-12T21:15:30.376Z,3.58
2022-08-12T21:18:11.199Z,3.30
2022-08-12T21:20:55.433Z,3.30
2022-08-12T21:23:23.374Z,3.50
2022-08-12T21:26:01.151Z,3.10
2022-08-12T21:28:31.012Z,3.40
2022-08-12T21:32:35.237Z,3.60
2022-08-12T21:34:08.066Z,3.55
2022-08-12T21:36:40.042Z,3.55
2022-08-12T21:39:19.142Z,4.05
2022-08-12T21:41:54.176Z,3.42
2022-08-12T21:45:44.467Z,3.47
2022-08-12T21:47:21.316Z,3.50
2022-08-12T21:50:02.186Z,3.55
2022-08-12T21:52:34.966Z,3.80
2022-08-12T21:55:08.372Z,4.40
2022-08-12T21:57:53.718Z,3.50
2022-08-12T22:00:31.890Z,3.10
2022-08-12T22:04:01.599Z,3.97
2022-08-12T22:06:19.979Z,3.33
2022-08-12T22:08:57.747Z,4.25
2022-08-12T22:11:41.092Z,3.70
2022-08-12T22:14:21.702Z,3.45
2022-08-12T22:16:53.799Z,3.55
2022-08-12T22:19:22.814Z,3.90
2022-08-12T22:21:55.654Z,4.30
2022-08-12T22:24:26.829Z,3.45
2022-08-12T22:27:08.158Z,3.97
2022-08-12T22:30:09.319Z,3.05
2022-08-12T22:32:51.255Z,3.47
2022-08-12T22:35:55.846Z,3.83
2022-08-12T22:38:25.043Z,3.50
2022-08-12T22:41:32.328Z,3.60
2022-08-12T22:44:20.377Z,3.63
2022-08-12T22:47:07.474Z,6.70
2022-08-12T22:49:44.784Z,4.60
2022-08-12T22:52:18.520Z,3.90
2022-08-12T22:55:03.550Z,3.78
2022-08-12T22:57:49.038Z,3.38
2022-08-12T23:00:24.759Z,3.38
2022-08-12T23:03:00.608Z,3.47
2022-08-12T23:05:56.736Z,3.45
2022-08-12T23:08:29.882Z,2.90
2022-08-12T23:11:05.892Z,4.68
2022-08-12T23:13:48.536Z,2.85
2022-08-12T23:16:28.986Z,3.40
2022-08-12T23:19:10.392Z,3.10
2022-08-12T23:22:06.077Z,3.08
2022-08-12T23:24:56.093Z,2.67
2022-08-12T23:27:50.616Z,3.13
2022-08-12T23:30:32.472Z,2.88
2022-08-12T23:33:20.605Z,2.70
2022-08-12T23:36:03.054Z,3.30
2022-08-12T23:38:32.953Z,2.92
2022-08-12T23:41:02.623Z,2.58
2022-08-12T23:43:40.130Z,2.70
2022-08-12T23:46:18.526Z,3.00
2022-08-12T23:48:50.567Z,2.88
2022-08-12T23:51:25.899Z,3.05
2022-08-12T23:54:02.530Z,3.17
2022-08-12T23:56:34.279Z,3.38
2022-08-12T23:59:06.609Z,3.53
